Time,TemperatureF,DewpointF,PressureIn,WindDirection,WindDirectionDegrees,WindSpeedMPH,WindSpeedGustMPH,Humidity,HourlyPrecipIn,Conditions,Clouds,dailyrainin,SoftwareType,DateUTC
2013-04-07 00:00:00,54.7,51.8,29.97,SE,144,0.0,16.0,90,0.00,,,0.00,Wunderground v.1.15,2013-04-07 05:00:00,
2013-04-07 00:05:00,54.6,51.7,29.97,SE,144,0.0,16.0,90,0.00,,,0.00,Wunderground v.1.15,2013-04-07 05:05:00,
2013-04-07 00:10:00,54.5,51.6,29.96,SE,144,0.0,3.0,90,0.00,,,0.00,Wunderground v.1.15,2013-04-07 05:10:00,
2013-04-07 00:15:00,54.2,51.3,29.96,SE,144,0.0,3.0,90,0.00,,,0.00,Wunderground v.1.15,2013-04-07 05:15:00,
2013-04-07 00:20:00,54.0,51.4,29.96,SE,144,0.0,3.0,91,0.00,,,0.00,Wunderground v.1.15,2013-04-07 05:20:00,
2013-04-07 00:30:00,53.8,51.2,29.96,SE,144,0.0,3.0,91,0.00,,,0.00,Wunderground v.1.15,2013-04-07 05:30:00,
2013-04-07 00:35:00,53.6,51.0,29.96,SE,144,0.0,3.0,91,0.00,,,0.00,Wunderground v.1.15,2013-04-07 05:35:00,
2013-04-07 00:40:00,53.4,51.1,29.96,SE,144,0.0,3.0,92,0.00,,,0.00,Wunderground v.1.15,2013-04-07 05:40:00,
2013-04-07 00:50:00,53.3,51.0,29.96,SE,144,0.0,3.0,92,0.00,,,0.00,Wunderground v.1.15,2013-04-07 05:50:00,
2013-04-07 01:00:00,53.2,50.9,29.96,SE,144,0.0,3.0,92,0.00,,,0.00,Wunderground v.1.15,2013-04-07 06:00:00,
2013-04-07 01:05:00,53.1,50.8,29.96,SE,144,0.0,3.0,92,0.00,,,0.00,Wunderground v.1.15,2013-04-07 06:05:00,
2013-04-07 01:10:00,52.7,50.4,29.96,SE,144,0.0,3.0,92,0.00,,,0.00,Wunderground v.1.15,2013-04-07 06:10:00,
2013-04-07 01:15:00,52.3,50.0,29.96,SE,144,0.0,3.0,92,0.00,,,0.00,Wunderground v.1.15,2013-04-07 06:15:00,
2013-04-07 01:20:00,52.2,49.9,29.96,SE,144,0.0,3.0,92,0.00,,,0.00,Wunderground v.1.15,2013-04-07 06:20:00,
2013-04-07 01:25:00,52.3,50.3,29.95,SE,144,0.0,3.0,93,0.00,,,0.00,Wunderground v.1.15,2013-04-07 06:25:00,
2013-04-07 01:30:00,52.3,50.3,29.95,SE,144,0.0,3.0,93,0.00,,,0.00,Wunderground v.1.15,2013-04-07 06:30:00,
2013-04-07 01:35:00,52.1,50.1,29.95,SE,144,0.0,3.0,93,0.00,,,0.00,Wunderground v.1.15,2013-04-07 06:35:00,
2013-04-07 01:40:00,52.1,50.1,29.95,SE,144,0.0,3.0,93,0.00,,,0.00,Wunderground v.1.15,2013-04-07 06:40:00,
2013-04-07 01:45:00,52.0,50.0,29.95,SE,144,0.0,3.0,93,0.00,,,0.00,Wunderground v.1.15,2013-04-07 06:45:00,
2013-04-07 01:50:00,51.8,49.8,29.95,SE,144,0.0,3.0,93,0.00,,,0.00,Wunderground v.1.15,2013-04-07 06:50:00,
2013-04-07 01:55:00,51.5,49.5,29.95,SE,144,0.0,3.0,93,0.00,,,0.00,Wunderground v.1.15,2013-04-07 06:55:00,
2013-04-07 02:00:00,51.4,49.4,29.95,SE,144,0.0,3.0,93,0.00,,,0.00,Wunderground v.1.15,2013-04-07 07:00:00,
2013-04-07 02:05:00,51.5,49.5,29.95,SE,144,0.0,3.0,93,0.00,,,0.00,Wunderground v.1.15,2013-04-07 07:05:00,
2013-04-07 02:15:00,51.4,49.4,29.94,SE,144,0.0,3.0,93,0.00,,,0.00,Wunderground v.1.15,2013-04-07 07:15:00,
2013-04-07 02:20:00,51.2,49.2,29.94,SE,144,0.0,3.0,93,0.00,,,0.00,Wunderground v.1.15,2013-04-07 07:20:00,
2013-04-07 02:25:00,51.2,49.2,29.94,SE,144,0.0,3.0,93,0.00,,,0.00,Wunderground v.1.15,2013-04-07 07:25:00,
2013-04-07 02:30:00,51.4,49.7,29.94,SE,144,0.0,3.0,94,0.00,,,0.00,Wunderground v.1.15,2013-04-07 07:30:00,
2013-04-07 02:35:00,51.4,49.7,29.94,SE,144,0.0,3.0,94,0.00,,,0.00,Wunderground v.1.15,2013-04-07 07:35:00,
2013-04-07 02:45:00,51.0,49.0,29.94,SE,144,0.0,3.0,93,0.00,,,0.00,Wunderground v.1.15,2013-04-07 07:45:00,
2013-04-07 02:55:00,50.8,49.1,29.94,SE,144,0.0,3.0,94,0.00,,,0.00,Wunderground v.1.15,2013-04-07 07:55:00,
2013-04-07 03:00:00,50.7,49.0,29.94,SE,144,0.0,3.0,94,0.00,,,0.00,Wunderground v.1.15,2013-04-07 08:00:00,
2013-04-07 03:05:00,50.7,49.0,29.94,SE,144,0.0,3.0,94,0.00,,,0.00,Wunderground v.1.15,2013-04-07 08:05:00,
2013-04-07 03:10:00,50.8,49.1,29.93,SE,144,0.0,3.0,94,0.00,,,0.00,Wunderground v.1.15,2013-04-07 08:10:00,
2013-04-07 03:15:00,51.1,49.4,29.93,SE,144,0.0,3.0,94,0.00,,,0.00,Wunderground v.1.15,2013-04-07 08:15:00,
2013-04-07 03:20:00,51.2,49.8,29.93,SE,144,0.0,3.0,95,0.00,,,0.00,Wunderground v.1.15,2013-04-07 08:20:00,
2013-04-07 03:25:00,51.3,49.9,29.93,SE,144,0.0,3.0,95,0.00,,,0.00,Wunderground v.1.15,2013-04-07 08:25:00,
2013-04-07 03:30:00,51.2,49.5,29.93,SE,144,0.0,3.0,94,0.00,,,0.00,Wunderground v.1.15,2013-04-07 08:30:00,
2013-04-07 03:35:00,51.3,49.9,29.93,SE,144,0.0,3.0,95,0.00,,,0.00,Wunderground v.1.15,2013-04-07 08:35:00,
2013-04-07 03:40:00,51.3,49.9,29.93,SE,144,0.0,3.0,95,0.00,,,0.00,Wunderground v.1.15,2013-04-07 08:40:00,
2013-04-07 03:45:00,51.4,50.0,29.93,SE,144,0.0,3.0,95,0.00,,,0.00,Wunderground v.1.15,2013-04-07 08:45:00,
2013-04-07 03:55:00,51.0,49.3,29.93,SE,144,0.0,3.0,94,0.00,,,0.00,Wunderground v.1.15,2013-04-07 08:55:00,
2013-04-07 04:00:00,50.9,49.2,29.93,SE,144,0.0,3.0,94,0.00,,,0.00,Wunderground v.1.15,2013-04-07 09:00:00,
2013-04-07 04:05:00,50.9,49.2,29.93,SE,144,0.0,3.0,94,0.00,,,0.00,Wunderground v.1.15,2013-04-07 09:05:00,
2013-04-07 04:10:00,51.0,49.3,29.93,SE,144,0.0,3.0,94,0.00,,,0.00,Wunderground v.1.15,2013-04-07 09:10:00,
2013-04-07 04:15:00,51.0,49.3,29.93,SE,144,0.0,3.0,94,0.00,,,0.00,Wunderground v.1.15,2013-04-07 09:15:00,
2013-04-07 04:20:00,50.9,49.2,29.93,SE,144,0.0,3.0,94,0.00,,,0.00,Wunderground v.1.15,2013-04-07 09:20:00,
2013-04-07 04:25:00,50.6,48.9,29.93,SE,144,0.0,3.0,94,0.00,,,0.00,Wunderground v.1.15,2013-04-07 09:25:00,
2013-04-07 04:30:00,50.6,48.9,29.93,SE,144,0.0,3.0,94,0.00,,,0.00,Wunderground v.1.15,2013-04-07 09:30:00,
2013-04-07 04:35:00,50.7,49.3,29.93,SE,144,0.0,3.0,95,0.00,,,0.00,Wunderground v.1.15,2013-04-07 09:35:00,
2013-04-07 04:40:00,51.0,49.6,29.93,SE,144,0.0,3.0,95,0.00,,,0.00,Wunderground v.1.15,2013-04-07 09:40:00,
2013-04-07 04:45:00,51.1,49.7,29.93,SE,144,0.0,3.0,95,0.00,,,0.00,Wunderground v.1.15,2013-04-07 09:45:00,
2013-04-07 04:50:00,51.3,49.9,29.93,SE,144,0.0,3.0,95,0.00,,,0.00,Wunderground v.1.15,2013-04-07 09:50:00,
2013-04-07 04:55:00,51.5,50.1,29.93,SE,144,0.0,3.0,95,0.00,,,0.00,Wunderground v.1.15,2013-04-07 09:55:00,
2013-04-07 05:00:00,51.6,50.2,29.93,SE,144,0.0,3.0,95,0.00,,,0.00,Wunderground v.1.15,2013-04-07 10:00:00,
2013-04-07 05:05:00,51.8,50.4,29.93,SE,144,0.0,3.0,95,0.00,,,0.00,Wunderground v.1.15,2013-04-07 10:05:00,
2013-04-07 05:10:00,51.7,50.3,29.93,SE,144,0.0,0.0,95,0.00,,,0.00,Wunderground v.1.15,2013-04-07 10:10:00,
2013-04-07 05:15:00,51.4,50.0,29.93,SE,144,0.0,0.0,95,0.00,,,0.00,Wunderground v.1.15,2013-04-07 10:15:00,
2013-04-07 05:20:00,51.1,49.7,29.93,SE,144,0.0,0.0,95,0.00,,,0.00,Wunderground v.1.15,2013-04-07 10:20:00,
2013-04-07 05:25:00,51.0,49.6,29.93,SE,144,0.0,0.0,95,0.00,,,0.00,Wunderground v.1.15,2013-04-07 10:25:00,
2013-04-07 05:30:00,51.0,49.6,29.93,SE,144,0.0,0.0,95,0.00,,,0.00,Wunderground v.1.15,2013-04-07 10:30:00,
2013-04-07 05:35:00,51.0,49.6,29.93,SE,144,0.0,1.0,95,0.00,,,0.00,Wunderground v.1.15,2013-04-07 10:35:00,
2013-04-07 05:40:00,51.1,49.7,29.93,SE,144,0.0,1.0,95,0.00,,,0.00,Wunderground v.1.15,2013-04-07 10:40:00,
2013-04-07 05:45:00,51.0,49.6,29.93,SE,144,0.0,1.0,95,0.00,,,0.00,Wunderground v.1.15,2013-04-07 10:45:00,
2013-04-07 05:50:00,50.9,49.5,29.93,SE,144,0.0,1.0,95,0.00,,,0.00,Wunderground v.1.15,2013-04-07 10:50:00,
2013-04-07 05:55:00,50.7,49.3,29.94,SE,144,0.0,1.0,95,0.00,,,0.00,Wunderground v.1.15,2013-04-07 10:55:00,
2013-04-07 06:00:00,50.4,49.0,29.94,SE,144,0.0,1.0,95,0.00,,,0.00,Wunderground v.1.15,2013-04-07 11:00:00,
2013-04-07 06:05:00,50.2,48.8,29.94,SE,144,0.0,1.0,95,0.00,,,0.00,Wunderground v.1.15,2013-04-07 11:05:00,
2013-04-07 06:10:00,50.2,48.8,29.94,SE,144,0.0,1.0,95,0.00,,,0.00,Wunderground v.1.15,2013-04-07 11:10:00,
2013-04-07 06:15:00,50.1,48.7,29.94,SE,144,0.0,1.0,95,0.00,,,0.00,Wunderground v.1.15,2013-04-07 11:15:00,
2013-04-07 06:20:00,50.1,48.7,29.94,SE,144,0.0,1.0,95,0.00,,,0.00,Wunderground v.1.15,2013-04-07 11:20:00,
2013-04-07 06:25:00,50.1,48.7,29.94,SE,144,0.0,1.0,95,0.00,,,0.00,Wunderground v.1.15,2013-04-07 11:25:00,
2013-04-07 06:35:00,49.9,48.5,29.94,SE,144,0.0,1.0,95,0.00,,,0.00,Wunderground v.1.15,2013-04-07 11:35:00,
2013-04-07 06:40:00,49.7,48.3,29.95,SE,144,0.0,1.0,95,0.00,,,0.00,Wunderground v.1.15,2013-04-07 11:40:00,
2013-04-07 06:50:00,49.3,47.9,29.95,SE,144,0.0,1.0,95,0.00,,,0.00,Wunderground v.1.15,2013-04-07 11:50:00,
2013-04-07 06:55:00,49.2,47.8,29.96,SE,144,0.0,1.0,95,0.00,,,0.00,Wunderground v.1.15,2013-04-07 11:55:00,
2013-04-07 07:05:00,49.5,48.1,29.96,SE,144,0.0,1.0,95,0.00,,,0.00,Wunderground v.1.15,2013-04-07 12:05:00,
2013-04-07 07:10:00,49.5,48.1,29.97,SE,144,0.0,1.0,95,0.00,,,0.00,Wunderground v.1.15,2013-04-07 12:10:00,
2013-04-07 07:15:00,49.4,48.0,29.97,SE,144,0.0,1.0,95,0.00,,,0.00,Wunderground v.1.15,2013-04-07 12:15:00,
2013-04-07 07:20:00,49.5,48.1,29.97,SE,144,0.0,1.0,95,0.00,,,0.00,Wunderground v.1.15,2013-04-07 12:20:00,
2013-04-07 07:30:00,49.8,48.7,29.98,SE,144,0.0,1.0,96,0.00,,,0.00,Wunderground v.1.15,2013-04-07 12:30:00,
2013-04-07 07:35:00,50.2,49.1,29.98,SE,144,0.0,1.0,96,0.00,,,0.00,Wunderground v.1.15,2013-04-07 12:35:00,
2013-04-07 07:40:00,50.6,49.5,29.98,SE,144,0.0,1.0,96,0.00,,,0.00,Wunderground v.1.15,2013-04-07 12:40:00,
2013-04-07 07:50:00,51.3,50.2,29.98,SE,144,0.0,1.0,96,0.00,,,0.00,Wunderground v.1.15,2013-04-07 12:50:00,
2013-04-07 08:00:00,52.4,51.3,29.98,SE,144,0.0,1.0,96,0.00,,,0.00,Wunderground v.1.15,2013-04-07 13:00:00,
2013-04-07 08:05:00,53.0,51.9,29.98,SSE,150,0.0,1.0,96,0.00,,,0.00,Wunderground v.1.15,2013-04-07 13:05:00,
2013-04-07 08:10:00,53.9,52.8,29.98,ESE,109,0.0,1.0,96,0.00,,,0.00,Wunderground v.1.15,2013-04-07 13:10:00,
2013-04-07 08:15:00,54.6,53.5,29.98,ESE,109,0.0,1.0,96,0.00,,,0.00,Wunderground v.1.15,2013-04-07 13:15:00,
2013-04-07 08:20:00,55.2,54.1,29.98,South,169,0.0,2.0,96,0.00,,,0.00,Wunderground v.1.15,2013-04-07 13:20:00,
2013-04-07 08:25:00,55.7,54.6,29.98,SSE,148,1.0,2.0,96,0.00,,,0.00,Wunderground v.1.15,2013-04-07 13:25:00,
2013-04-07 08:30:00,56.2,55.1,29.98,South,178,1.0,1.0,96,0.00,,,0.00,Wunderground v.1.15,2013-04-07 13:30:00,
2013-04-07 08:35:00,56.7,55.6,29.98,SSE,159,1.0,1.0,96,0.00,,,0.00,Wunderground v.1.15,2013-04-07 13:35:00,
2013-04-07 08:36:00,56.9,55.8,29.98,South,186,1.0,1.0,96,0.00,,,0.00,Wunderground v.1.15,2013-04-07 13:36:00,
2013-04-07 08:40:00,57.2,56.1,29.98,South,169,1.0,1.0,96,0.00,,,0.00,Wunderground v.1.15,2013-04-07 13:40:00,
2013-04-07 08:45:00,57.5,56.4,29.98,SE,145,1.0,1.0,96,0.00,,,0.00,Wunderground v.1.15,2013-04-07 13:45:00,
2013-04-07 08:55:00,58.3,57.2,29.99,SE,128,1.0,4.0,96,0.00,,,0.00,Wunderground v.1.15,2013-04-07 13:55:00,
2013-04-07 09:05:00,59.4,58.3,29.99,SE,136,2.0,2.0,96,0.00,,,0.00,Wunderground v.1.15,2013-04-07 14:05:00,
2013-04-07 09:10:00,59.9,58.8,29.98,SSW,206,2.0,2.0,96,0.00,,,0.00,Wunderground v.1.15,2013-04-07 14:10:00,
2013-04-07 09:15:00,60.6,59.2,29.98,SSE,157,1.0,2.0,95,0.00,,,0.00,Wunderground v.1.15,2013-04-07 14:15:00,
2013-04-07 09:20:00,61.4,59.4,29.98,SSE,148,1.0,1.0,93,0.00,,,0.00,Wunderground v.1.15,2013-04-07 14:20:00,
2013-04-07 09:30:00,63.2,58.6,29.98,South,169,2.0,2.0,85,0.00,,,0.00,Wunderground v.1.15,2013-04-07 14:30:00,
2013-04-07 09:45:00,65.4,58.4,29.98,SSE,163,2.0,2.0,78,0.00,,,0.00,Wunderground v.1.15,2013-04-07 14:45:00,
2013-04-07 09:50:00,65.8,58.0,29.98,SE,128,3.0,3.0,76,0.00,,,0.00,Wunderground v.1.15,2013-04-07 14:50:00,
2013-04-07 09:55:00,66.4,58.2,29.98,South,172,3.0,3.0,75,0.00,,,0.00,Wunderground v.1.15,2013-04-07 14:55:00,
2013-04-07 10:00:00,66.8,58.2,29.98,ESE,110,3.0,3.0,74,0.00,,,0.00,Wunderground v.1.15,2013-04-07 15:00:00,
2013-04-07 10:05:00,67.4,59.2,29.98,South,188,3.0,3.0,75,0.00,,,0.00,Wunderground v.1.15,2013-04-07 15:05:00,
2013-04-07 10:10:00,67.8,58.1,29.98,SE,144,3.0,5.0,71,0.00,,,0.00,Wunderground v.1.15,2013-04-07 15:10:00,
2013-04-07 10:15:00,68.1,58.7,29.98,SSW,195,3.0,5.0,72,0.00,,,0.00,Wunderground v.1.15,2013-04-07 15:15:00,
2013-04-07 10:20:00,68.2,58.0,29.98,ESE,117,3.0,3.0,70,0.00,,,0.00,Wunderground v.1.15,2013-04-07 15:20:00,
2013-04-07 10:25:00,68.0,57.8,29.98,SSE,153,3.0,5.0,70,0.00,,,0.00,Wunderground v.1.15,2013-04-07 15:25:00,
2013-04-07 10:30:00,68.1,57.5,29.98,SE,138,4.0,5.0,69,0.00,,,0.00,Wunderground v.1.15,2013-04-07 15:30:00,
2013-04-07 10:40:00,68.4,57.8,29.99,ESE,114,4.0,5.0,69,0.00,,,0.00,Wunderground v.1.15,2013-04-07 15:40:00,
2013-04-07 10:45:00,68.4,57.4,29.99,South,183,3.0,5.0,68,0.00,,,0.00,Wunderground v.1.15,2013-04-07 15:45:00,
2013-04-07 10:50:00,68.5,57.1,29.99,South,170,4.0,9.0,67,0.00,,,0.00,Wunderground v.1.15,2013-04-07 15:50:00,
2013-04-07 11:00:00,68.6,57.2,29.99,SSE,157,2.0,2.0,67,0.00,,,0.00,Wunderground v.1.15,2013-04-07 16:00:00,
2013-04-07 11:07:00,68.8,57.4,29.99,SE,134,2.0,2.0,67,0.00,,,0.00,Wunderground v.1.15,2013-04-07 16:07:00,
2013-04-07 11:15:00,69.1,57.7,29.99,SE,144,1.0,4.0,67,0.00,,,0.00,Wunderground v.1.15,2013-04-07 16:15:00,
2013-04-07 11:25:00,69.3,57.5,29.99,SW,233,2.0,3.0,66,0.00,,,0.00,Wunderground v.1.15,2013-04-07 16:25:00,
2013-04-07 11:30:00,69.6,56.4,29.99,SW,217,2.0,4.0,63,0.00,,,0.00,Wunderground v.1.15,2013-04-07 16:30:00,
2013-04-07 11:35:00,69.8,57.5,29.99,SSE,153,2.0,4.0,65,0.00,,,0.00,Wunderground v.1.15,2013-04-07 16:35:00,
2013-04-07 11:45:00,70.2,57.0,29.98,WSW,256,2.0,5.0,63,0.00,,,0.00,Wunderground v.1.15,2013-04-07 16:45:00,
2013-04-07 11:50:00,70.3,57.1,29.98,SSW,207,1.0,1.0,63,0.00,,,0.00,Wunderground v.1.15,2013-04-07 16:50:00,
2013-04-07 11:55:00,70.3,56.7,29.98,SSE,149,1.0,1.0,62,0.00,,,0.00,Wunderground v.1.15,2013-04-07 16:55:00,
2013-04-07 12:05:00,71.4,57.2,29.98,SSE,157,3.0,9.0,61,0.00,,,0.00,Wunderground v.1.15,2013-04-07 17:05:00,
2013-04-07 12:10:00,71.4,56.8,29.98,SE,141,2.0,2.0,60,0.00,,,0.00,Wunderground v.1.15,2013-04-07 17:10:00,
2013-04-07 12:15:00,71.7,56.6,29.98,SE,125,2.0,3.0,59,0.00,,,0.00,Wunderground v.1.15,2013-04-07 17:15:00,
2013-04-07 12:20:00,72.0,56.9,29.98,SE,133,2.0,3.0,59,0.00,,,0.00,Wunderground v.1.15,2013-04-07 17:20:00,
2013-04-07 12:25:00,71.9,56.8,29.97,ESE,121,3.0,3.0,59,0.00,,,0.00,Wunderground v.1.15,2013-04-07 17:25:00,
2013-04-07 12:30:00,71.8,56.2,29.97,SSE,157,3.0,3.0,58,0.00,,,0.00,Wunderground v.1.15,2013-04-07 17:30:00,
2013-04-07 12:35:00,71.4,56.8,29.97,ESE,119,3.0,3.0,60,0.00,,,0.00,Wunderground v.1.15,2013-04-07 17:35:00,
2013-04-07 12:40:00,71.8,56.7,29.97,ESE,115,3.0,3.0,59,0.00,,,0.00,Wunderground v.1.15,2013-04-07 17:40:00,
2013-04-07 12:45:00,71.8,57.2,29.97,SSW,209,2.0,3.0,60,0.00,,,0.00,Wunderground v.1.15,2013-04-07 17:45:00,
2013-04-07 12:50:00,71.9,57.3,29.97,ESE,119,2.0,2.0,60,0.00,,,0.00,Wunderground v.1.15,2013-04-07 17:50:00,
2013-04-07 12:55:00,72.1,57.4,29.96,WSW,238,2.0,3.0,60,0.00,,,0.00,Wunderground v.1.15,2013-04-07 17:55:00,
2013-04-07 13:00:00,73.5,58.3,29.96,SE,133,2.0,5.0,59,0.00,,,0.00,Wunderground v.1.15,2013-04-07 18:00:00,
2013-04-07 13:05:00,73.8,56.6,29.96,SW,214,3.0,5.0,55,0.00,,,0.00,Wunderground v.1.15,2013-04-07 18:05:00,
2013-04-07 13:10:00,74.0,57.8,29.96,South,172,3.0,3.0,57,0.00,,,0.00,Wunderground v.1.15,2013-04-07 18:10:00,
2013-04-07 13:15:00,74.0,56.8,29.96,SE,125,3.0,3.0,55,0.00,,,0.00,Wunderground v.1.15,2013-04-07 18:15:00,
2013-04-07 13:20:00,73.9,57.2,29.96,SSW,194,3.0,4.0,56,0.00,,,0.00,Wunderground v.1.15,2013-04-07 18:20:00,
2013-04-07 13:30:00,72.9,56.3,29.95,South,186,3.0,4.0,56,0.00,,,0.00,Wunderground v.1.15,2013-04-07 18:30:00,
2013-04-07 13:35:00,72.5,55.9,29.95,WSW,244,3.0,6.0,56,0.00,,,0.00,Wunderground v.1.15,2013-04-07 18:35:00,
2013-04-07 13:45:00,73.4,56.7,29.94,SE,138,3.0,6.0,56,0.00,,,0.00,Wunderground v.1.15,2013-04-07 18:45:00,
2013-04-07 13:50:00,74.2,57.0,29.94,SE,140,3.0,3.0,55,0.00,,,0.00,Wunderground v.1.15,2013-04-07 18:50:00,
2013-04-07 13:55:00,74.9,56.1,29.94,SE,133,3.0,5.0,52,0.00,,,0.00,Wunderground v.1.15,2013-04-07 18:55:00,
2013-04-07 14:05:00,74.4,56.2,29.94,SSE,150,2.0,3.0,53,0.00,,,0.00,Wunderground v.1.15,2013-04-07 19:05:00,
2013-04-07 14:10:00,74.1,55.9,29.93,SSE,162,2.0,2.0,53,0.00,,,0.00,Wunderground v.1.15,2013-04-07 19:10:00,
2013-04-07 14:15:00,73.8,56.1,29.93,South,175,2.0,4.0,54,0.00,,,0.00,Wunderground v.1.15,2013-04-07 19:15:00,
2013-04-07 14:20:00,74.3,55.5,29.93,SSW,205,3.0,3.0,52,0.00,,,0.00,Wunderground v.1.15,2013-04-07 19:20:00,
2013-04-07 14:25:00,75.1,56.3,29.93,WSW,240,3.0,3.0,52,0.00,,,0.00,Wunderground v.1.15,2013-04-07 19:25:00,
2013-04-07 14:30:00,75.5,56.6,29.93,South,178,3.0,7.0,52,0.00,,,0.00,Wunderground v.1.15,2013-04-07 19:30:00,
2013-04-07 14:35:00,75.1,56.8,29.93,SW,217,3.0,7.0,53,0.00,,,0.00,Wunderground v.1.15,2013-04-07 19:35:00,
2013-04-07 14:40:00,75.3,56.5,29.92,SSE,156,3.0,5.0,52,0.00,,,0.00,Wunderground v.1.15,2013-04-07 19:40:00,
2013-04-07 14:45:00,74.9,56.1,29.92,SE,134,3.0,5.0,52,0.00,,,0.00,Wunderground v.1.15,2013-04-07 19:45:00,
2013-04-07 15:00:00,74.6,56.3,29.92,South,169,3.0,3.0,53,0.00,,,0.00,Wunderground v.1.15,2013-04-07 20:00:00,
2013-04-07 15:05:00,74.8,55.5,29.92,SSE,157,3.0,3.0,51,0.00,,,0.00,Wunderground v.1.15,2013-04-07 20:05:00,
2013-04-07 15:10:00,74.8,56.0,29.91,SSE,151,2.0,2.0,52,0.00,,,0.00,Wunderground v.1.15,2013-04-07 20:10:00,
2013-04-07 15:15:00,75.0,56.7,29.91,WSW,242,1.0,4.0,53,0.00,,,0.00,Wunderground v.1.15,2013-04-07 20:15:00,
2013-04-07 15:20:00,75.4,57.1,29.91,SSE,162,3.0,3.0,53,0.00,,,0.00,Wunderground v.1.15,2013-04-07 20:20:00,
2013-04-07 15:25:00,75.2,56.4,29.91,South,171,3.0,3.0,52,0.00,,,0.00,Wunderground v.1.15,2013-04-07 20:25:00,
2013-04-07 15:30:00,74.8,56.5,29.91,SE,145,3.0,3.0,53,0.00,,,0.00,Wunderground v.1.15,2013-04-07 20:30:00,
2013-04-07 15:35:00,74.4,56.7,29.91,SSE,148,2.0,11.0,54,0.00,,,0.00,Wunderground v.1.15,2013-04-07 20:35:00,
2013-04-07 15:40:00,74.1,56.4,29.90,SSW,213,2.0,11.0,54,0.00,,,0.00,Wunderground v.1.15,2013-04-07 20:40:00,
2013-04-07 15:45:00,74.3,56.6,29.90,SSE,150,1.0,11.0,54,0.00,,,0.00,Wunderground v.1.15,2013-04-07 20:45:00,
2013-04-07 15:50:00,74.2,56.5,29.90,SE,138,2.0,11.0,54,0.00,,,0.00,Wunderground v.1.15,2013-04-07 20:50:00,
2013-04-07 15:55:00,74.3,57.6,29.90,South,171,2.0,11.0,56,0.00,,,0.00,Wunderground v.1.15,2013-04-07 20:55:00,
2013-04-07 16:00:00,74.3,56.6,29.90,SSE,167,2.0,11.0,54,0.00,,,0.00,Wunderground v.1.15,2013-04-07 21:00:00,
2013-04-07 16:05:00,74.1,56.9,29.90,SSE,150,2.0,11.0,55,0.00,,,0.00,Wunderground v.1.15,2013-04-07 21:05:00,
2013-04-07 16:15:00,74.5,57.3,29.90,SE,133,3.0,3.0,55,0.00,,,0.00,Wunderground v.1.15,2013-04-07 21:15:00,
2013-04-07 16:20:00,74.3,57.6,29.90,South,173,2.0,11.0,56,0.00,,,0.00,Wunderground v.1.15,2013-04-07 21:20:00,
2013-04-07 16:25:00,74.0,56.8,29.90,SW,225,3.0,11.0,55,0.00,,,0.00,Wunderground v.1.15,2013-04-07 21:25:00,
2013-04-07 16:30:00,74.2,57.5,29.90,SE,144,4.0,4.0,56,0.00,,,0.00,Wunderground v.1.15,2013-04-07 21:30:00,
2013-04-07 16:35:00,74.1,57.9,29.90,South,176,2.0,11.0,57,0.00,,,0.00,Wunderground v.1.15,2013-04-07 21:35:00,
2013-04-07 16:40:00,74.0,57.8,29.90,SSE,150,2.0,11.0,57,0.00,,,0.00,Wunderground v.1.15,2013-04-07 21:40:00,
2013-04-07 16:45:00,74.0,58.3,29.90,SSE,152,2.0,11.0,58,0.00,,,0.00,Wunderground v.1.15,2013-04-07 21:45:00,
2013-04-07 16:50:00,73.8,57.6,29.90,ESE,115,2.0,2.0,57,0.00,,,0.00,Wunderground v.1.15,2013-04-07 21:50:00,
2013-04-07 16:55:00,74.3,57.6,29.89,SE,134,3.0,6.0,56,0.00,,,0.00,Wunderground v.1.15,2013-04-07 21:55:00,
2013-04-07 17:00:00,74.6,57.9,29.89,SW,221,3.0,3.0,56,0.00,,,0.00,Wunderground v.1.15,2013-04-07 22:00:00,
2013-04-07 17:05:00,74.5,58.3,29.89,ESE,122,2.0,11.0,57,0.00,,,0.00,Wunderground v.1.15,2013-04-07 22:05:00,
2013-04-07 17:10:00,74.5,58.3,29.89,East,97,2.0,2.0,57,0.00,,,0.00,Wunderground v.1.15,2013-04-07 22:10:00,
2013-04-07 17:15:00,74.3,58.1,29.89,ESE,123,3.0,3.0,57,0.00,,,0.00,Wunderground v.1.15,2013-04-07 22:15:00,
2013-04-07 17:20:00,74.2,58.0,29.89,SSW,201,4.0,4.0,57,0.00,,,0.00,Wunderground v.1.15,2013-04-07 22:20:00,
2013-04-07 17:25:00,74.4,58.2,29.88,SE,142,3.0,11.0,57,0.00,,,0.00,Wunderground v.1.15,2013-04-07 22:25:00,
2013-04-07 17:30:00,74.5,58.3,29.88,SE,138,3.0,11.0,57,0.00,,,0.00,Wunderground v.1.15,2013-04-07 22:30:00,
2013-04-07 17:35:00,74.6,58.4,29.88,SE,134,3.0,11.0,57,0.00,,,0.00,Wunderground v.1.15,2013-04-07 22:35:00,
2013-04-07 17:40:00,74.4,58.2,29.88,South,170,4.0,4.0,57,0.00,,,0.00,Wunderground v.1.15,2013-04-07 22:40:00,
2013-04-07 17:45:00,74.3,59.0,29.88,SE,146,3.0,5.0,59,0.00,,,0.00,Wunderground v.1.15,2013-04-07 22:45:00,
2013-04-07 17:55:00,73.9,58.2,29.88,South,171,2.0,11.0,58,0.00,,,0.00,Wunderground v.1.15,2013-04-07 22:55:00,
2013-04-07 18:00:00,73.5,58.3,29.88,SE,144,3.0,11.0,59,0.00,,,0.00,Wunderground v.1.15,2013-04-07 23:00:00,
2013-04-07 18:10:00,72.8,58.1,29.88,SSE,153,3.0,3.0,60,0.00,,,0.00,Wunderground v.1.15,2013-04-07 23:10:00,
2013-04-07 18:15:00,72.7,58.0,29.88,SE,137,2.0,11.0,60,0.00,,,0.00,Wunderground v.1.15,2013-04-07 23:15:00,
2013-04-07 18:20:00,72.5,58.3,29.88,SSE,160,3.0,3.0,61,0.00,,,0.00,Wunderground v.1.15,2013-04-07 23:20:00,
2013-04-07 18:30:00,72.1,57.9,29.88,SE,136,2.0,11.0,61,0.00,,,0.00,Wunderground v.1.15,2013-04-07 23:30:00,
2013-04-07 18:35:00,71.9,58.2,29.88,SSE,156,3.0,11.0,62,0.00,,,0.00,Wunderground v.1.15,2013-04-07 23:35:00,
2013-04-07 18:40:00,71.6,57.9,29.88,WSW,240,3.0,11.0,62,0.00,,,0.00,Wunderground v.1.15,2013-04-07 23:40:00,
2013-04-07 18:45:00,71.3,57.6,29.88,SSE,150,3.0,11.0,62,0.00,,,0.00,Wunderground v.1.15,2013-04-07 23:45:00,
2013-04-07 18:50:00,71.2,58.0,29.88,SE,142,3.0,3.0,63,0.00,,,0.00,Wunderground v.1.15,2013-04-07 23:50:00,
2013-04-07 19:00:00,70.7,57.9,29.88,SE,141,2.0,2.0,64,0.00,,,0.00,Wunderground v.1.15,2013-04-08 00:00:00,
2013-04-07 19:05:00,70.4,58.1,29.88,SE,137,1.0,11.0,65,0.00,,,0.00,Wunderground v.1.15,2013-04-08 00:05:00,
2013-04-07 19:10:00,70.1,58.2,29.88,SE,144,1.0,1.0,66,0.00,,,0.00,Wunderground v.1.15,2013-04-08 00:10:00,
2013-04-07 19:15:00,69.8,58.3,29.88,ESE,114,2.0,4.0,67,0.00,,,0.00,Wunderground v.1.15,2013-04-08 00:15:00,
2013-04-07 19:20:00,69.5,58.1,29.88,SE,128,1.0,1.0,67,0.00,,,0.00,Wunderground v.1.15,2013-04-08 00:20:00,
2013-04-07 19:30:00,68.8,57.8,29.88,SE,136,1.0,1.0,68,0.00,,,0.00,Wunderground v.1.15,2013-04-08 00:30:00,
2013-04-07 19:40:00,68.3,58.1,29.88,SE,142,0.0,11.0,70,0.00,,,0.00,Wunderground v.1.15,2013-04-08 00:40:00,
2013-04-07 19:50:00,67.6,58.2,29.88,SE,143,0.0,11.0,72,0.00,,,0.00,Wunderground v.1.15,2013-04-08 00:50:00,
2013-04-07 19:55:00,67.2,58.2,29.88,SE,137,0.0,11.0,73,0.00,,,0.00,Wunderground v.1.15,2013-04-08 00:55:00,
2013-04-07 20:00:00,66.8,58.2,29.88,SE,137,1.0,1.0,74,0.00,,,0.00,Wunderground v.1.15,2013-04-08 01:00:00,
2013-04-07 20:05:00,66.5,58.0,29.88,SE,124,1.0,2.0,74,0.00,,,0.00,Wunderground v.1.15,2013-04-08 01:05:00,
2013-04-07 20:15:00,66.1,57.9,29.88,SE,126,1.0,11.0,75,0.00,,,0.00,Wunderground v.1.15,2013-04-08 01:15:00,
2013-04-07 20:20:00,65.9,58.1,29.88,SSE,161,0.0,11.0,76,0.00,,,0.00,Wunderground v.1.15,2013-04-08 01:20:00,
2013-04-07 20:25:00,65.6,58.2,29.88,ESE,118,1.0,11.0,77,0.00,,,0.00,Wunderground v.1.15,2013-04-08 01:25:00,
2013-04-07 20:30:00,65.5,58.1,29.88,SSE,147,1.0,1.0,77,0.00,,,0.00,Wunderground v.1.15,2013-04-08 01:30:00,
2013-04-07 20:35:00,65.4,58.0,29.88,South,173,1.0,11.0,77,0.00,,,0.00,Wunderground v.1.15,2013-04-08 01:35:00,
2013-04-07 20:40:00,65.3,58.3,29.88,SE,138,2.0,2.0,78,0.00,,,0.00,Wunderground v.1.15,2013-04-08 01:40:00,
2013-04-07 20:45:00,65.2,58.2,29.88,SSE,159,1.0,11.0,78,0.00,,,0.00,Wunderground v.1.15,2013-04-08 01:45:00,
2013-04-07 20:50:00,65.0,58.0,29.88,SSE,157,0.0,11.0,78,0.00,,,0.00,Wunderground v.1.15,2013-04-08 01:50:00,
2013-04-07 20:55:00,64.7,58.0,29.89,SSE,148,0.0,11.0,79,0.00,,,0.00,Wunderground v.1.15,2013-04-08 01:55:00,
2013-04-07 21:05:00,64.3,58.0,29.89,SE,130,1.0,11.0,80,0.00,,,0.00,Wunderground v.1.15,2013-04-08 02:05:00,
2013-04-07 21:10:00,64.2,57.9,29.90,SE,137,1.0,1.0,80,0.00,,,0.00,Wunderground v.1.15,2013-04-08 02:10:00,
2013-04-07 21:15:00,64.1,58.1,29.90,SE,134,1.0,11.0,81,0.00,,,0.00,Wunderground v.1.15,2013-04-08 02:15:00,
2013-04-07 21:20:00,64.0,58.1,29.90,SE,141,2.0,2.0,81,0.00,,,0.00,Wunderground v.1.15,2013-04-08 02:20:00,
2013-04-07 21:25:00,64.0,58.4,29.90,SSE,164,2.0,3.0,82,0.00,,,0.00,Wunderground v.1.15,2013-04-08 02:25:00,
2013-04-07 21:40:00,63.8,58.2,29.90,SE,137,1.0,1.0,82,0.00,,,0.00,Wunderground v.1.15,2013-04-08 02:40:00,
2013-04-07 21:55:00,63.6,58.7,29.91,SE,130,2.0,5.0,84,0.00,,,0.00,Wunderground v.1.15,2013-04-08 02:55:00,
2013-04-07 22:05:00,63.4,58.5,29.91,SE,144,2.0,11.0,84,0.00,,,0.00,Wunderground v.1.15,2013-04-08 03:05:00,
2013-04-07 22:15:00,63.2,58.6,29.91,ESE,123,2.0,11.0,85,0.00,,,0.00,Wunderground v.1.15,2013-04-08 03:15:00,
2013-04-07 22:35:00,62.5,58.3,29.91,SE,146,1.0,11.0,86,0.00,,,0.00,Wunderground v.1.15,2013-04-08 03:35:00,
2013-04-07 22:40:00,62.3,58.4,29.90,ESE,115,1.0,1.0,87,0.00,,,0.00,Wunderground v.1.15,2013-04-08 03:40:00,
2013-04-07 22:50:00,62.0,58.1,29.90,SE,144,0.0,11.0,87,0.00,,,0.00,Wunderground v.1.15,2013-04-08 03:50:00,
2013-04-07 22:55:00,61.8,58.2,29.90,SE,145,0.0,11.0,88,0.00,,,0.00,Wunderground v.1.15,2013-04-08 03:55:00,
2013-04-07 23:05:00,61.5,57.9,29.90,SSE,154,0.0,11.0,88,0.00,,,0.00,Wunderground v.1.15,2013-04-08 04:05:00,
2013-04-07 23:10:00,61.3,58.0,29.90,SSE,156,0.0,11.0,89,0.00,,,0.00,Wunderground v.1.15,2013-04-08 04:10:00,
2013-04-07 23:15:00,61.2,57.9,29.90,SE,128,0.0,11.0,89,0.00,,,0.00,Wunderground v.1.15,2013-04-08 04:15:00,
2013-04-07 23:20:00,61.1,58.1,29.90,SSE,148,1.0,1.0,90,0.00,,,0.00,Wunderground v.1.15,2013-04-08 04:20:00,
2013-04-07 23:25:00,61.0,58.0,29.89,SSE,167,1.0,11.0,90,0.00,,,0.00,Wunderground v.1.15,2013-04-08 04:25:00,
2013-04-07 23:35:00,61.1,58.5,29.89,SSE,155,1.0,11.0,91,0.00,,,0.00,Wunderground v.1.15,2013-04-08 04:35:00,
2013-04-07 23:40:00,61.1,58.5,29.89,SE,124,2.0,2.0,91,0.00,,,0.00,Wunderground v.1.15,2013-04-08 04:40:00,
2013-04-07 23:45:00,61.0,58.4,29.89,SSE,162,1.0,11.0,91,0.00,,,0.00,Wunderground v.1.15,2013-04-08 04:45:00,
2013-04-07 23:50:00,60.9,58.3,29.89,SSE,156,1.0,11.0,91,0.00,,,0.00,Wunderground v.1.15,2013-04-08 04:50:00,
2013-04-07 23:55:00,60.9,58.3,29.89,SE,134,1.0,11.0,91,0.00,,,0.00,Wunderground v.1.15,2013-04-08 04:55:00,